Time;durP1;ratioP1;P1;durP2;ratioP2;P2;SDS_P1;SDS_P2;PMS_P1;PMS_P2;Temp;Humidity;BMP_temperature;BMP_pressure;BME280_temperature;BME280_humidity;BME280_pressure;Samples;Min_cycle;Max_cycle;Signal;HPM_P1;HPM_P2
2021/11/02 00:01:03;;;;;;;51.77;39.88;;;;;;;6.59;77.72;99403.27;1727364;82;21111;-71
2021/11/02 00:04:45;;;;;;;56.28;40.40;;;;;;;6.71;77.35;99392.31;1801657;79;22751;-71
2021/11/02 00:07:13;;;;;;;54.80;41.10;;;;;;;6.67;77.37;99393.89;1754525;81;21051;-72
2021/11/02 00:09:47;;;;;;;61.83;43.92;;;;;;;6.66;77.42;99389.02;1728592;82;21043;-72
2021/11/02 00:12:15;;;;;;;55.65;42.15;;;;;;;6.65;77.41;99393.34;1745612;82;21051;-72
2021/11/02 00:14:43;;;;;;;53.35;39.53;;;;;;;6.65;77.36;99394.69;1741099;82;21034;-72
2021/11/02 00:17:21;;;;;;;56.90;42.43;;;;;;;6.63;77.23;99381.94;1751195;82;21057;-72
2021/11/02 00:19:44;;;;;;;54.58;40.28;;;;;;;6.65;77.19;99371.70;1752576;81;21538;-71
2021/11/02 00:22:16;;;;;;;57.83;41.53;;;;;;;6.66;77.25;99375.48;1742555;82;21063;-71
2021/11/02 00:25:05;;;;;;;56.45;41.05;;;;;;;6.68;77.32;99373.89;1752669;82;21046;-72
2021/11/02 00:27:12;;;;;;;57.15;40.55;;;;;;;6.64;77.34;99372.23;1717733;83;21059;-72
2021/11/02 00:29:39;;;;;;;57.70;42.13;;;;;;;6.67;77.29;99369.55;1723137;83;21585;-73
2021/11/02 00:32:05;;;;;;;56.95;40.95;;;;;;;6.72;77.08;99367.73;1745130;82;21034;-73
2021/11/02 00:34:33;;;;;;;54.33;41.05;;;;;;;6.76;76.92;99372.09;1693999;82;21062;-73
2021/11/02 00:37:00;;;;;;;58.92;43.35;;;;;;;6.76;76.84;99370.73;1724461;81;21091;-73
2021/11/02 00:39:26;;;;;;;66.57;46.75;;;;;;;6.72;76.96;99368.26;1723474;82;21022;-73
2021/11/02 00:41:52;;;;;;;54.98;41.48;;;;;;;6.70;77.09;99371.73;1723986;82;21066;-73
2021/11/02 00:44:21;;;;;;;59.67;44.93;;;;;;;6.71;77.05;99363.91;1725693;82;21537;-72
2021/11/02 00:46:47;;;;;;;58.42;43.13;;;;;;;6.76;76.91;99363.98;1729594;82;21688;-73
2021/11/02 00:49:18;;;;;;;;;;;;;;;6.79;76.79;99363.46;1742233;82;21059;-72
2021/11/02 00:51:45;;;;;;;52.73;37.45;;;;;;;6.76;76.73;99362.63;1737156;82;20138;-72
2021/11/02 00:54:12;;;;;;;60.30;42.90;;;;;;;6.62;77.03;99359.52;1752897;82;21597;-72
2021/11/02 00:56:40;;;;;;;57.95;45.25;;;;;;;6.59;77.22;99372.17;1732569;82;21015;-72
2021/11/02 00:59:06;;;;;;;63.23;44.98;;;;;;;6.57;77.14;99372.97;1733319;82;21014;-72
2021/11/02 01:01:33;;;;;;;64.75;46.02;;;;;;;6.57;77.07;99373.50;1750990;82;21596;-73
2021/11/02 01:04:04;;;;;;;57.45;40.52;;;;;;;6.56;77.11;99365.92;1741991;81;21078;-72
2021/11/02 01:06:28;;;;;;;64.95;46.42;;;;;;;6.52;77.19;99359.95;1745816;82;21082;-72
2021/11/02 01:08:54;;;;;;;67.90;45.88;;;;;;;6.48;77.42;99369.10;1739082;82;21034;-73
2021/11/02 01:11:22;;;;;;;60.67;46.35;;;;;;;6.48;77.46;99370.45;1723835;83;21110;-72
2021/11/02 01:13:50;;;;;;;57.20;41.73;;;;;;;6.53;77.33;99372.38;1733400;82;21027;-72
2021/11/02 01:16:19;;;;;;;62.30;46.13;;;;;;;6.50;77.26;99366.95;1725366;82;21078;-71
2021/11/02 01:18:46;;;;;;;59.88;45.23;;;;;;;6.42;77.34;99358.75;1723312;83;21031;-71
2021/11/02 01:21:13;;;;;;;66.07;46.58;;;;;;;6.36;77.60;99357.06;1723572;83;21529;-72
2021/11/02 01:23:40;;;;;;;58.98;44.63;;;;;;;6.36;77.70;99350.31;1730991;82;20987;-71
2021/11/02 01:26:06;;;;;;;;;;;;;;;6.40;77.68;99339.27;1753848;82;21502;-72
2021/11/02 01:28:33;;;;;;;56.28;41.50;;;;;;;6.45;77.65;99345.25;1753302;82;20115;-71
2021/11/02 01:31:00;;;;;;;62.08;44.05;;;;;;;6.38;77.88;99341.92;1753172;82;21050;-71
2021/11/02 01:33:26;;;;;;;64.97;46.02;;;;;;;6.32;78.04;99338.36;1752634;82;21031;-71
2021/11/02 01:35:53;;;;;;;63.28;44.70;;;;;;;6.32;78.18;99345.13;1749391;82;21019;-71
2021/11/02 01:38:23;;;;;;;61.05;44.15;;;;;;;6.37;78.14;99352.48;1726481;82;21035;-71
2021/11/02 01:40:51;;;;;;;68.52;47.67;;;;;;;6.38;78.11;99348.16;1740429;82;21078;-71
2021/11/02 01:43:18;;;;;;;57.35;44.15;;;;;;;6.35;78.19;99339.73;1725579;82;21074;-72
2021/11/02 01:45:46;;;;;;;63.55;46.15;;;;;;;6.31;78.43;99338.08;1742244;82;21055;-72
2021/11/02 01:48:18;;;;;;;65.25;46.13;;;;;;;6.30;78.51;99341.87;1752867;82;21066;-71
2021/11/02 01:50:45;;;;;;;58.78;44.18;;;;;;;6.32;78.51;99327.55;1753258;81;21066;-70
2021/11/02 01:53:12;;;;;;;61.70;46.42;;;;;;;6.34;78.43;99319.98;1752968;82;21074;-71
2021/11/02 01:55:39;;;;;;;65.65;48.08;;;;;;;6.30;78.48;99318.89;1749771;82;21118;-70
2021/11/02 01:58:06;;;;;;;65.37;47.73;;;;;;;6.24;78.71;99321.77;1730846;82;21486;-70
2021/11/02 02:00:34;;;;;;;60.10;44.70;;;;;;;6.21;78.85;99324.45;1723253;83;21019;-70
2021/11/02 02:03:36;;;;;;;65.62;47.43;;;;;;;6.22;78.88;99318.52;1722901;82;21550;-71
2021/11/02 02:06:16;;;;;;;61.00;45.45;;;;;;;6.23;78.96;99318.80;1722052;82;21373;-71
2021/11/02 02:08:55;;;;;;;60.60;44.90;;;;;;;6.16;79.21;99322.23;1729815;82;21071;-71
2021/11/02 02:11:48;;;;;;;66.30;48.42;;;;;;;6.13;79.39;99315.42;1717344;83;21074;-70
2021/11/02 02:14:25;;;;;;;60.60;43.70;;;;;;;6.16;79.38;99317.66;1745043;82;21051;-71
2021/11/02 02:16:53;;;;;;;65.62;45.70;;;;;;;6.19;79.41;99315.79;1744737;82;21027;-71
2021/11/02 02:19:42;;;;;;;57.20;43.68;;;;;;;6.20;79.48;99313.34;1718260;82;21063;-70
2021/11/02 02:22:50;;;;;;;64.30;47.85;;;;;;;6.20;79.64;99312.56;1740821;82;21066;-71
2021/11/02 02:25:45;;;;;;;65.67;47.27;;;;;;;6.20;79.62;99305.80;1740430;82;21027;-70
2021/11/02 02:28:28;;;;;;;61.60;43.70;;;;;;;6.26;79.60;99299.37;1719126;82;21546;-71
2021/11/02 02:31:06;;;;;;;61.13;45.03;;;;;;;6.31;79.56;99302.11;1717773;83;21063;-71
2021/11/02 02:33:41;;;;;;;59.60;43.55;;;;;;;6.26;79.53;99296.67;1717900;82;21624;-71
2021/11/02 02:36:08;;;;;;;57.88;43.30;;;;;;;6.22;79.78;99308.52;1730407;81;21078;-71
2021/11/02 02:38:39;;;;;;;59.13;45.00;;;;;;;6.22;79.99;99303.11;1736380;81;21055;-71
2021/11/02 02:41:06;;;;;;;62.08;46.33;;;;;;;6.29;79.99;99305.08;1717651;83;21059;-71
2021/11/02 02:43:35;;;;;;;63.83;45.48;;;;;;;6.38;79.76;99301.38;1732870;82;21051;-71
2021/11/02 02:46:01;;;;;;;75.95;52.67;;;;;;;6.44;79.60;99303.90;1745167;81;21032;-72
2021/11/02 02:48:28;;;;;;;70.72;51.18;;;;;;;6.45;79.46;99293.34;1695491;83;20995;-71
2021/11/02 02:50:57;;;;;;;62.13;46.73;;;;;;;6.44;79.46;99291.73;1717808;83;21143;-72
2021/11/02 02:53:25;;;;;;;73.62;52.10;;;;;;;6.40;79.63;99287.90;1719008;82;21549;-71
2021/11/02 02:55:54;;;;;;;66.42;47.60;;;;;;;6.38;79.70;99281.09;1734201;82;21526;-71
2021/11/02 02:58:23;;;;;;;63.42;44.13;;;;;;;6.39;79.62;99293.55;1741006;81;20960;-71
2021/11/02 03:00:50;;;;;;;62.58;46.40;;;;;;;6.38;79.60;99286.50;1747644;82;21614;-71
2021/11/02 03:03:16;;;;;;;64.55;49.10;;;;;;;6.39;79.67;99286.80;1747963;81;21000;-71
2021/11/02 03:05:43;;;;;;;60.48;45.20;;;;;;;6.39;79.75;99280.03;1735461;82;21510;-71
2021/11/02 03:08:09;;;;;;;63.80;46.23;;;;;;;6.36;80.01;99279.20;1725711;82;20975;-71
2021/11/02 03:10:37;;;;;;;59.50;44.35;;;;;;;6.37;80.07;99280.84;1726006;82;21616;-71
2021/11/02 03:13:09;;;;;;;62.48;44.67;;;;;;;6.40;80.04;99290.61;1740661;82;21034;-71
2021/11/02 03:15:56;;;;;;;61.30;45.03;;;;;;;6.40;79.90;99281.67;1752087;82;21031;-71
2021/11/02 03:49:16;;;;;;;63.73;48.28;;;;;;;6.58;80.01;99250.20;1749050;82;21014;-71
2021/11/02 04:27:17;;;;;;;69.45;48.48;;;;;;;6.68;80.09;99218.36;1717507;83;21558;-71
2021/11/02 05:09:45;;;;;;;65.20;47.98;;;;;;;6.37;80.90;99195.14;1716484;82;21007;-71
2021/11/02 05:48:03;;;;;;;70.92;50.30;;;;;;;6.45;81.44;99193.30;1730618;82;21510;-73
2021/11/02 05:50:55;;;;;;;64.32;47.23;;;;;;;6.41;81.69;99203.00;1706924;82;21122;-73
2021/11/02 05:58:36;;;;;;;64.15;47.33;;;;;;;6.50;81.61;99197.94;1740244;82;20995;-72
2021/11/02 06:01:07;;;;;;;72.37;48.55;;;;;;;6.53;81.64;99199.30;1745623;82;21904;-74
2021/11/02 06:28:02;;;;;;;79.97;51.95;;;;;;;6.76;81.47;99192.20;1723736;83;21509;-72
2021/11/02 06:30:47;;;;;;;75.03;51.75;;;;;;;6.75;81.52;99197.32;1736837;82;21024;-72
2021/11/02 06:33:28;;;;;;;84.17;54.30;;;;;;;6.72;81.62;99195.14;1752522;82;21023;-72
2021/11/02 06:38:58;;;;;;;70.75;48.17;;;;;;;6.79;81.44;99191.14;1753059;82;21823;-72
2021/11/02 06:54:55;;;;;;;74.87;51.55;;;;;;;6.68;81.63;99184.55;1706759;82;21031;-73
2021/11/02 06:57:16;;;;;;;70.10;48.23;;;;;;;6.65;81.72;99183.19;1718777;82;21114;-75
2021/11/02 07:18:56;;;;;;;69.90;47.83;;;;;;;6.71;82.28;99187.55;1711148;82;21000;-73
2021/11/02 07:21:35;;;;;;;69.67;47.65;;;;;;;6.72;82.50;99184.31;1737038;82;21066;-72
2021/11/02 07:24:02;;;;;;;68.60;46.30;;;;;;;6.78;82.57;99184.63;1736943;80;20975;-73
2021/11/02 07:26:43;;;;;;;66.67;46.15;;;;;;;6.84;82.39;99183.57;1734010;81;21066;-73
2021/11/02 08:45:26;;;;;;;51.20;37.65;;;;;;;7.20;82.72;99131.81;1738150;82;20984;-74
2021/11/02 08:47:47;;;;;;;49.48;37.05;;;;;;;7.15;82.82;99119.63;1719886;82;21498;-74
2021/11/02 08:50:13;;;;;;;50.35;35.73;;;;;;;7.12;82.96;99121.52;1749644;81;21051;-74
2021/11/02 08:52:39;;;;;;;53.23;38.23;;;;;;;7.16;82.91;99126.64;1729893;82;21097;-74
2021/11/02 08:55:07;;;;;;;49.77;36.35;;;;;;;7.16;82.82;99113.11;1732207;82;21498;-73
2021/11/02 08:57:34;;;;;;;50.05;36.58;;;;;;;7.16;82.84;99111.22;1748099;82;21083;-74
2021/11/02 09:00:01;;;;;;;48.20;35.23;;;;;;;7.17;82.85;99107.98;1744700;82;21036;-72
2021/11/02 09:02:35;;;;;;;47.73;35.20;;;;;;;7.20;82.90;99106.91;1712055;83;21391;-73
2021/11/02 09:05:13;;;;;;;71.82;46.35;;;;;;;7.18;83.10;99106.38;1692215;82;20987;-71
2021/11/02 09:07:40;;;;;;;54.90;40.35;;;;;;;7.19;83.20;99105.28;1724129;82;21083;-72
2021/11/02 09:10:13;;;;;;;50.15;37.00;;;;;;;7.21;83.08;99090.95;1732850;82;21527;-73
2021/11/02 09:12:43;;;;;;;53.23;39.25;;;;;;;7.24;83.08;99094.48;1722386;82;21041;-73
2021/11/02 09:15:10;;;;;;;51.48;37.40;;;;;;;7.25;83.12;99087.99;1716367;82;21019;-72
2021/11/02 09:17:43;;;;;;;50.45;36.93;;;;;;;7.27;83.18;99087.71;1687457;84;21402;-73
2021/11/02 09:20:11;;;;;;;55.55;39.33;;;;;;;7.23;83.39;99084.72;1729537;82;20976;-73
2021/11/02 09:22:38;;;;;;;55.05;40.75;;;;;;;7.26;83.54;99089.60;1725374;82;21028;-73
2021/11/02 09:25:05;;;;;;;54.60;40.17;;;;;;;7.31;83.51;99085.57;1733229;82;20984;-73
2021/11/02 09:27:31;;;;;;;52.23;38.92;;;;;;;7.35;83.38;99083.96;1737030;82;21074;-71
2021/11/02 09:29:58;;;;;;;55.88;39.08;;;;;;;7.38;83.38;99075.30;1720348;81;20996;-72
2021/11/02 09:32:25;;;;;;;49.50;36.15;;;;;;;7.45;83.45;99075.04;1713819;82;21057;-72
2021/11/02 09:34:54;;;;;;;53.05;39.15;;;;;;;7.46;83.46;99072.08;1710433;82;20979;-72
2021/11/02 09:37:35;;;;;;;57.20;43.00;;;;;;;7.43;83.59;99064.49;1717648;82;21606;-72
2021/11/02 09:40:16;;;;;;;60.12;43.40;;;;;;;7.45;83.66;99066.38;1728628;82;20981;-72
2021/11/02 09:43:05;;;;;;;53.85;38.83;;;;;;;7.49;83.54;99052.59;1737470;82;21012;-72
2021/11/02 09:45:50;;;;;;;52.65;38.10;;;;;;;7.55;83.54;99059.34;1722360;82;21107;-73
2021/11/02 09:48:32;;;;;;;45.10;33.80;;;;;;;7.60;83.57;99046.64;1729161;82;21065;-73
2021/11/02 09:51:50;;;;;;;54.50;37.30;;;;;;;7.63;83.53;99039.33;1710203;82;21115;-73
2021/11/02 09:55:11;;;;;;;49.75;36.83;;;;;;;7.59;83.43;99036.88;1718816;82;20991;-73
2021/11/02 09:58:04;;;;;;;45.95;33.15;;;;;;;7.51;83.59;99027.92;1717151;82;21086;-74
2021/11/02 10:01:10;;;;;;;48.92;33.95;;;;;;;7.54;83.66;99022.53;1728704;81;21532;-74
2021/11/02 10:04:14;;;;;;;42.35;31.73;;;;;;;7.51;83.62;99019.27;1735942;81;20972;-74
2021/11/02 10:07:03;;;;;;;46.42;34.30;;;;;;;7.52;83.71;99018.72;1740345;81;21078;-74
2021/11/02 10:09:52;;;;;;;46.15;33.30;;;;;;;7.51;83.85;99001.66;1738472;82;20987;-73
2021/11/02 10:12:21;;;;;;;40.38;29.52;;;;;;;7.48;84.04;99000.84;1727748;82;21082;-73
2021/11/02 10:15:13;;;;;;;42.38;31.50;;;;;;;7.53;84.16;98994.63;1747584;82;21029;-73
2021/11/02 10:18:10;;;;;;;41.02;30.57;;;;;;;7.56;84.04;98992.73;1731329;82;20996;-71
2021/11/02 10:21:16;;;;;;;46.02;32.23;;;;;;;7.59;83.90;98988.66;1725346;82;21084;-72
2021/11/02 10:24:35;;;;;;;39.15;28.25;;;;;;;7.61;83.91;98989.22;1748499;82;21027;-72
2021/11/02 10:27:43;;;;;;;42.53;31.77;;;;;;;7.70;84.00;98988.41;1665183;85;21532;-71
2021/11/02 10:30:38;;;;;;;46.85;32.63;;;;;;;7.71;83.83;98983.80;1728164;82;21006;-74
2021/11/02 10:33:33;;;;;;;46.92;32.63;;;;;;;7.68;83.81;98981.64;1725516;82;20991;-73
2021/11/02 10:36:37;;;;;;;42.27;30.68;;;;;;;7.65;83.84;98980.27;1738936;82;21007;-72
2021/11/02 10:39:21;;;;;;;38.80;28.67;;;;;;;7.65;84.15;98971.35;1732616;82;21063;-72
2021/11/02 10:42:23;;;;;;;42.88;31.62;;;;;;;7.66;84.18;98965.64;1710480;82;21059;-72
2021/11/02 10:44:53;;;;;;;41.65;28.38;;;;;;;7.68;83.98;98954.02;1725383;82;21597;-73
2021/11/02 10:47:25;;;;;;;38.65;28.00;;;;;;;7.74;84.02;98952.91;1696976;83;21139;-73
2021/11/02 10:50:08;;;;;;;39.50;28.87;;;;;;;7.77;83.91;98945.59;1751931;82;21060;-72
2021/11/02 10:52:37;;;;;;;38.75;28.35;;;;;;;7.76;83.81;98948.59;1729380;82;21080;-71
2021/11/02 10:55:23;;;;;;;40.00;28.55;;;;;;;7.74;83.80;98943.44;1723370;83;20963;-72
2021/11/02 10:58:44;;;;;;;39.88;24.98;;;;;;;7.78;83.91;98944.52;1724964;82;21042;-71
2021/11/02 11:01:12;;;;;;;35.60;26.27;;;;;;;7.84;83.95;98940.70;1741340;82;21105;-73
2021/11/02 11:03:40;;;;;;;34.88;24.23;;;;;;;7.86;84.12;98932.32;1743012;82;21489;-72
2021/11/02 11:06:10;;;;;;;36.50;26.17;;;;;;;7.85;84.24;98929.33;1745884;80;21563;-72
2021/11/02 11:08:38;;;;;;;40.43;26.42;;;;;;;7.86;84.22;98924.19;1716834;82;21495;-71
2021/11/02 11:11:08;;;;;;;34.53;23.42;;;;;;;7.88;83.93;98927.42;1719863;82;21063;-72
2021/11/02 11:13:38;;;;;;;34.03;23.95;;;;;;;7.89;83.82;98923.64;1710117;82;20995;-72
2021/11/02 11:16:18;;;;;;;34.60;23.60;;;;;;;7.89;83.71;98912.27;1708689;82;21039;-72
2021/11/02 11:19:08;;;;;;;35.80;24.85;;;;;;;7.90;83.71;98912.51;1717085;82;21486;-73
2021/11/02 11:21:38;;;;;;;35.48;23.55;;;;;;;7.91;83.68;98910.62;1722700;82;21031;-72
2021/11/02 11:24:16;;;;;;;31.00;22.80;;;;;;;7.89;83.71;98901.42;1732127;82;20980;-72
2021/11/02 11:26:53;;;;;;;32.35;24.32;;;;;;;7.85;83.84;98896.81;1715579;82;21043;-71
2021/11/02 11:29:21;;;;;;;28.98;23.35;;;;;;;7.85;84.01;98898.17;1714549;82;20987;-73
2021/11/02 11:31:55;;;;;;;28.40;20.60;;;;;;;7.90;83.99;98896.82;1736361;82;21067;-74
2021/11/02 11:34:32;;;;;;;24.72;20.48;;;;;;;7.92;83.89;98882.44;1735314;82;20960;-72
2021/11/02 11:37:00;;;;;;;26.87;20.15;;;;;;;7.93;83.87;98888.14;1726317;82;21593;-72
2021/11/02 11:39:30;;;;;;;25.82;20.05;;;;;;;7.95;83.92;98887.30;1717929;82;21035;-72
2021/11/02 11:41:58;;;;;;;27.42;21.82;;;;;;;7.96;83.91;98876.74;1690018;82;21083;-72
2021/11/02 11:44:25;;;;;;;26.62;20.90;;;;;;;7.98;83.95;98874.02;1723849;82;20992;-73
2021/11/02 11:47:09;;;;;;;24.85;20.12;;;;;;;8.03;83.97;98871.84;1726037;82;21154;-71
2021/11/02 11:49:39;;;;;;;27.27;23.07;;;;;;;8.05;84.14;98868.84;1726308;82;21044;-72
2021/11/02 11:52:07;;;;;;;26.42;21.37;;;;;;;8.06;84.18;98865.05;1723937;82;21052;-72
2021/11/02 11:54:49;;;;;;;22.62;19.12;;;;;;;8.13;84.14;98869.09;1711243;82;21043;-73
2021/11/02 11:57:36;;;;;;;25.80;21.40;;;;;;;8.19;84.01;98861.20;1733678;82;21455;-72
2021/11/02 12:00:12;;;;;;;24.55;19.70;;;;;;;8.21;83.87;98860.94;1719933;82;21052;-72
2021/11/02 12:02:48;;;;;;;24.25;19.30;;;;;;;8.20;83.73;98852.52;1722100;82;21053;-73
2021/11/02 12:05:19;;;;;;;22.77;18.67;;;;;;;8.21;83.77;98854.16;1715574;82;20964;-72
2021/11/02 12:08:18;;;;;;;21.85;17.15;;;;;;;8.17;83.65;98854.44;1723603;82;21068;-72
2021/11/02 12:10:45;;;;;;;22.48;18.82;;;;;;;8.12;83.54;98856.62;1720816;82;21595;-71
2021/11/02 12:13:13;;;;;;;21.75;18.32;;;;;;;8.01;83.68;98857.20;1725154;82;21528;-72
2021/11/02 12:16:06;;;;;;;20.62;17.48;;;;;;;7.97;83.83;98853.98;1728378;82;21071;-74
2021/11/02 12:21:19;;;;;;;21.90;17.20;;;;;;;7.97;83.87;98849.92;1791024;79;22686;-72
2021/11/02 12:23:51;;;;;;;21.73;16.75;;;;;;;7.89;84.11;98847.23;1746247;82;21003;-72
2021/11/02 12:26:17;;;;;;;19.55;16.52;;;;;;;7.90;84.21;98848.83;1724335;82;21082;-72
2021/11/02 12:28:47;;;;;;;18.77;14.28;;;;;;;7.94;84.15;98847.19;1728106;82;20954;-72
2021/11/02 12:31:18;;;;;;;17.30;13.93;;;;;;;7.97;84.10;98842.57;1727081;80;21034;-72
2021/11/02 12:33:50;;;;;;;18.73;14.63;;;;;;;8.00;84.12;98840.69;1751180;82;21521;-72
2021/11/02 12:36:22;;;;;;;19.75;15.55;;;;;;;8.05;84.12;98852.03;1727047;82;21573;-72
2021/11/02 12:38:49;;;;;;;19.37;15.38;;;;;;;8.04;84.07;98850.44;1735126;82;20974;-72
2021/11/02 12:41:21;;;;;;;17.00;14.13;;;;;;;8.01;84.15;98842.83;1747466;82;21127;-72
2021/11/02 12:44:14;;;;;;;16.40;14.25;;;;;;;8.03;84.13;98843.38;1747124;82;20948;-72
2021/11/02 12:46:46;;;;;;;17.62;14.50;;;;;;;8.06;84.07;98840.11;1743608;82;21115;-72
2021/11/02 12:49:20;;;;;;;19.85;15.30;;;;;;;8.04;84.08;98840.95;1712613;82;20990;-72
2021/11/02 12:51:52;;;;;;;16.93;13.95;;;;;;;8.01;84.25;98847.71;1744622;82;21122;-72
2021/11/02 12:54:25;;;;;;;18.17;13.95;;;;;;;8.03;84.25;98839.86;1725240;82;21049;-72
2021/11/02 12:56:58;;;;;;;17.77;13.62;;;;;;;8.03;84.11;98848.80;1735949;82;21035;-72
2021/11/02 12:59:35;;;;;;;16.85;13.55;;;;;;;8.04;84.09;98841.48;1737760;82;21068;-73
2021/11/02 13:02:33;;;;;;;14.10;11.75;;;;;;;8.03;84.09;98842.56;1701835;82;21090;-72
2021/11/02 13:05:21;;;;;;;18.42;14.40;;;;;;;8.06;84.12;98842.01;1723486;82;21572;-72
2021/11/02 13:08:16;;;;;;;17.37;13.38;;;;;;;8.04;84.15;98842.84;1739671;82;20988;-73
2021/11/02 13:10:44;;;;;;;20.12;14.50;;;;;;;7.98;84.33;98837.97;1750328;82;21090;-71
2021/11/02 13:13:15;;;;;;;17.65;14.23;;;;;;;7.98;84.33;98842.84;1752811;82;21027;-73
2021/11/02 13:15:57;;;;;;;19.02;14.87;;;;;;;8.00;84.25;98840.69;1752133;82;21585;-71
2021/11/02 13:18:30;;;;;;;15.80;14.13;;;;;;;8.03;84.15;98843.92;1730910;81;21498;-71
2021/11/02 13:21:22;;;;;;;19.23;14.45;;;;;;;8.04;84.16;98840.13;1727490;82;21629;-72
2021/11/02 13:24:07;;;;;;;18.07;13.95;;;;;;;8.00;84.24;98839.88;1746382;82;20948;-73
2021/11/02 13:26:46;;;;;;;22.07;15.58;;;;;;;7.99;84.32;98835.53;1741529;82;21055;-73
2021/11/02 13:29:20;;;;;;;17.65;14.05;;;;;;;8.01;84.21;98833.34;1732827;82;21593;-72
2021/11/02 13:31:48;;;;;;;19.00;14.93;;;;;;;8.03;84.19;98829.83;1723655;82;21057;-72
2021/11/02 13:34:19;;;;;;;20.30;14.50;;;;;;;8.05;84.13;98825.47;1738674;82;21059;-72
2021/11/02 13:36:46;;;;;;;18.82;14.90;;;;;;;8.06;84.11;98826.56;1739319;82;21525;-71
2021/11/02 13:39:13;;;;;;;;;;;;;;;8.08;84.12;98822.23;1737084;82;21019;-72
2021/11/02 13:41:49;;;;;;;20.10;15.45;;;;;;;8.06;84.14;98818.97;1740347;82;20757;-72
2021/11/02 13:44:17;;;;;;;23.18;16.75;;;;;;;7.95;84.47;98822.27;1719724;82;20983;-73
2021/11/02 13:46:47;;;;;;;25.40;16.85;;;;;;;7.94;84.63;98819.28;1718174;82;21056;-73
2021/11/02 13:49:15;;;;;;;22.95;14.68;;;;;;;7.98;84.51;98814.93;1730622;82;20981;-73
2021/11/02 13:51:41;;;;;;;22.67;14.58;;;;;;;8.01;84.44;98815.73;1741708;82;21011;-70
2021/11/02 13:54:09;;;;;;;26.45;17.85;;;;;;;8.03;84.42;98816.28;1697499;82;21047;-68
2021/11/02 13:56:45;;;;;;;19.98;15.58;;;;;;;8.03;84.39;98813.56;1728537;82;21066;-68
2021/11/02 13:59:12;;;;;;;18.42;14.07;;;;;;;8.03;84.33;98814.11;1729368;82;20987;-67
2021/11/02 14:01:51;;;;;;;17.30;13.13;;;;;;;7.97;84.47;98807.34;1737767;82;21621;-67
2021/11/02 14:04:37;;;;;;;18.40;12.78;;;;;;;7.93;84.60;98806.84;1728598;82;20987;-68
2021/11/02 14:07:21;;;;;;;19.67;13.10;;;;;;;7.94;84.62;98807.89;1730043;81;21072;-67
2021/11/02 14:09:57;;;;;;;18.23;13.35;;;;;;;7.93;84.62;98797.35;1711694;82;21059;-67
2021/11/02 14:12:33;;;;;;;19.60;14.35;;;;;;;7.94;84.70;98803.02;1708339;82;21028;-68
2021/11/02 14:15:18;;;;;;;16.37;12.20;;;;;;;7.95;84.77;98801.40;1718527;82;21054;-68
2021/11/02 14:17:49;;;;;;;18.92;13.30;;;;;;;7.98;84.85;98804.09;1743729;82;20968;-68
2021/11/02 14:20:39;;;;;;;18.48;11.95;;;;;;;7.98;84.87;98797.31;1745809;82;21023;-68
2021/11/02 14:23:08;;;;;;;17.95;12.33;;;;;;;7.96;84.96;98806.28;1743534;82;20983;-68
2021/11/02 14:25:39;;;;;;;17.60;12.78;;;;;;;7.95;85.12;98804.11;1743576;82;21097;-69
2021/11/02 14:28:07;;;;;;;20.35;14.53;;;;;;;7.95;85.08;98801.94;1724155;82;21486;-68
2021/11/02 14:30:44;;;;;;;17.90;12.98;;;;;;;7.98;85.06;98800.02;1723790;82;21003;-68
2021/11/02 14:33:25;;;;;;;15.32;11.90;;;;;;;8.00;85.03;98795.16;1735891;82;21528;-69
2021/11/02 14:36:04;;;;;;;16.23;12.37;;;;;;;8.03;85.00;98797.84;1711553;82;21052;-67
2021/11/02 14:38:48;;;;;;;17.57;12.75;;;;;;;8.03;85.04;98800.02;1732532;82;20999;-70
2021/11/02 14:41:34;;;;;;;24.67;16.07;;;;;;;8.05;85.05;98801.08;1755819;80;21043;-69
2021/11/02 14:44:24;;;;;;;23.52;16.10;;;;;;;8.03;85.06;98796.48;1737870;80;21011;-69
2021/11/02 14:46:56;;;;;;;22.27;15.58;;;;;;;7.95;85.22;98795.98;1729676;82;21564;-70
2021/11/02 14:49:36;;;;;;;21.93;14.50;;;;;;;7.94;85.30;98789.47;1745431;82;21050;-69
2021/11/02 14:52:08;;;;;;;18.65;13.53;;;;;;;7.95;85.26;98794.63;1726564;82;21520;-69
2021/11/02 14:54:41;;;;;;;19.77;13.88;;;;;;;7.95;85.25;98793.81;1745380;82;21576;-69
2021/11/02 14:57:23;;;;;;;20.48;15.15;;;;;;;7.94;85.30;98794.89;1739963;82;21593;-68
2021/11/02 14:59:54;;;;;;;20.62;13.25;;;;;;;7.95;85.38;98794.63;1721738;80;21908;-68
2021/11/02 15:02:37;;;;;;;20.88;15.18;;;;;;;7.96;85.40;98797.61;1734530;82;21601;-68
2021/11/02 15:05:06;;;;;;;23.02;14.60;;;;;;;7.98;85.44;98800.02;1753300;82;21051;-68
2021/11/02 15:07:35;;;;;;;22.13;15.38;;;;;;;7.95;85.60;98798.69;1752914;82;21012;-67
2021/11/02 15:10:07;;;;;;;20.32;14.78;;;;;;;7.96;85.65;98804.92;1751856;82;21552;-68
2021/11/02 15:12:34;;;;;;;19.98;14.38;;;;;;;7.96;85.60;98799.50;1753015;82;21043;-68
2021/11/02 15:15:03;;;;;;;18.98;13.70;;;;;;;7.98;85.57;98795.95;1744356;82;21055;-67
2021/11/02 15:17:29;;;;;;;18.87;13.80;;;;;;;7.98;85.55;98795.95;1745617;82;21640;-67
2021/11/02 15:19:56;;;;;;;23.30;15.05;;;;;;;7.98;85.57;98793.25;1745172;82;20991;-67
2021/11/02 15:22:24;;;;;;;20.10;13.62;;;;;;;7.99;85.58;98792.98;1741819;82;20999;-67
2021/11/02 15:24:57;;;;;;;23.52;14.18;;;;;;;7.99;85.62;98794.88;1736228;82;20999;-67
2021/11/02 15:27:32;;;;;;;23.52;15.55;;;;;;;8.00;85.70;98801.39;1730075;82;21029;-69
2021/11/02 15:30:02;;;;;;;24.95;15.55;;;;;;;8.04;85.71;98798.13;1745681;82;20968;-68
2021/11/02 15:32:46;;;;;;;26.05;16.48;;;;;;;8.07;85.76;98801.62;1737457;81;20995;-66
2021/11/02 15:35:16;;;;;;;25.50;16.62;;;;;;;8.05;85.97;98801.08;1750057;82;21018;-69
2021/11/02 15:37:55;;;;;;;27.85;16.40;;;;;;;8.08;86.04;98797.27;1738802;82;20967;-67
2021/11/02 15:40:24;;;;;;;21.02;15.65;;;;;;;8.13;85.89;98788.30;1730911;81;21078;-67
2021/11/02 15:42:54;;;;;;;23.75;14.95;;;;;;;8.14;85.78;98777.20;1735692;82;20999;-67
2021/11/02 15:45:37;;;;;;;23.22;15.30;;;;;;;8.17;85.71;98786.66;1724050;82;21062;-67
2021/11/02 15:48:11;;;;;;;22.13;14.55;;;;;;;8.18;85.70;98790.47;1731892;82;21029;-68
2021/11/02 15:50:48;;;;;;;28.40;19.12;;;;;;;8.22;85.73;98788.01;1723238;83;21036;-68
2021/11/02 15:53:21;;;;;;;27.15;19.32;;;;;;;8.23;85.70;98795.84;1739467;82;20978;-68
2021/11/02 15:55:47;;;;;;;31.65;20.92;;;;;;;8.17;85.84;98796.97;1740450;82;21112;-67
2021/11/02 15:58:15;;;;;;;31.68;24.10;;;;;;;8.19;85.98;98798.03;1749150;82;21016;-68
2021/11/02 16:00:44;;;;;;;33.55;23.73;;;;;;;8.26;85.87;98799.34;1753232;82;21593;-68
2021/11/02 16:03:15;;;;;;;32.78;25.80;;;;;;;8.30;85.66;98799.09;1718345;82;21011;-67
2021/11/02 16:05:44;;;;;;;34.67;28.17;;;;;;;8.27;85.47;98792.84;1718589;83;21589;-67
2021/11/02 16:08:17;;;;;;;30.62;22.37;;;;;;;8.31;85.56;98782.28;1742709;82;21497;-67
2021/11/02 16:10:45;;;;;;;24.40;16.02;;;;;;;8.33;85.55;98784.16;1734137;82;21613;-67
2021/11/02 16:13:11;;;;;;;22.37;16.00;;;;;;;8.26;85.56;98775.48;1734973;82;20986;-68
2021/11/02 16:15:39;;;;;;;24.02;17.52;;;;;;;8.23;85.52;98778.22;1740933;82;21066;-67
2021/11/02 16:18:21;;;;;;;24.05;16.85;;;;;;;8.24;85.50;98775.78;1740743;82;21014;-68
2021/11/02 16:20:47;;;;;;;25.00;16.55;;;;;;;8.21;85.43;98774.18;1735285;82;21490;-67
2021/11/02 16:23:18;;;;;;;23.40;16.23;;;;;;;8.17;85.46;98769.05;1723324;82;21017;-68
2021/11/02 16:25:53;;;;;;;24.87;17.57;;;;;;;8.14;85.51;98767.71;1731427;82;21056;-68
2021/11/02 16:28:27;;;;;;;23.95;16.87;;;;;;;8.10;85.55;98761.77;1727887;82;20988;-68
2021/11/02 16:31:04;;;;;;;26.57;17.17;;;;;;;8.07;85.64;98759.08;1722360;82;21020;-68
2021/11/02 16:33:46;;;;;;;24.70;18.17;;;;;;;8.04;85.69;98758.28;1726249;82;21023;-68
2021/11/02 16:36:29;;;;;;;26.25;18.07;;;;;;;8.01;85.86;98769.66;1738471;82;21060;-69
2021/11/02 16:39:01;;;;;;;23.38;16.73;;;;;;;7.96;85.96;98769.69;1729455;81;21477;-69
2021/11/02 16:41:32;;;;;;;53.83;38.25;;;;;;;7.98;86.13;98780.52;1743123;82;21538;-68
2021/11/02 16:44:03;;;;;;;45.58;32.53;;;;;;;8.02;86.29;98773.99;1736857;82;21036;-68
2021/11/02 16:46:38;;;;;;;39.95;26.45;;;;;;;8.08;86.33;98771.52;1727176;82;21656;-68
2021/11/02 16:49:12;;;;;;;34.23;21.65;;;;;;;8.14;86.35;98775.84;1718646;82;21024;-68